Time;durP1;ratioP1;P1;durP2;ratioP2;P2;SDS_P1;SDS_P2;PMS_P1;PMS_P2;Temp;Humidity;BMP_temperature;BMP_pressure;BME280_temperature;BME280_humidity;BME280_pressure;Samples;Min_cycle;Max_cycle;Signal;HPM_P1;HPM_P2
2022/10/16 00:01:10;;;;;;;;;1.00;1.00;;;;;16.97;100.00;100400.16;4871862;29;45444;-83
2022/10/16 00:03:36;;;;;;;;;1.00;1.00;;;;;16.98;100.00;100420.72;4875397;28;44750;-84
2022/10/16 00:06:05;;;;;;;;;1.00;1.00;;;;;16.93;100.00;100402.94;4859172;29;47040;-84
2022/10/16 00:08:31;;;;;;;;;1.00;1.00;;;;;16.86;100.00;100409.31;4875287;29;45362;-83
2022/10/16 00:11:25;;;;;;;;;1.50;1.50;;;;;16.87;100.00;100411.09;4875779;29;45435;-84
2022/10/16 00:13:54;;;;;;;;;1.00;1.00;;;;;16.79;100.00;100413.88;4874243;29;45426;-83
2022/10/16 00:16:20;;;;;;;;;2.00;2.00;;;;;16.82;100.00;100438.00;4858776;29;45858;-83
2022/10/16 00:19:00;;;;;;;;;2.50;2.50;;;;;16.88;100.00;100445.97;4858966;29;45832;-83
2022/10/16 00:21:28;;;;;;;;;3.00;1.25;;;;;16.96;100.00;100453.91;4859346;29;44861;-83
2022/10/16 00:24:04;;;;;;;;;1.00;1.00;;;;;16.96;100.00;100435.97;4859478;28;45432;-83
2022/10/16 00:26:31;;;;;;;;;1.25;1.25;;;;;16.98;100.00;100425.22;4858340;29;48117;-83
2022/10/16 00:28:57;;;;;;;;;1.50;1.00;;;;;16.96;100.00;100433.28;4888255;29;45727;-83
2022/10/16 00:31:23;;;;;;;;;2.00;2.00;;;;;16.97;100.00;100423.47;4875180;29;45237;-83
2022/10/16 00:33:49;;;;;;;;;1.00;1.00;;;;;16.93;100.00;100433.38;4875059;29;45506;-83
2022/10/16 00:36:18;;;;;;;;;1.25;1.00;;;;;16.92;100.00;100445.00;4872189;29;48552;-84
2022/10/16 00:38:44;;;;;;;;;1.00;1.00;;;;;16.95;100.00;100444.09;4873809;29;45379;-84
2022/10/16 00:41:14;;;;;;;;;1.25;1.25;;;;;16.93;100.00;100441.41;4856992;29;45445;-84
2022/10/16 00:43:48;;;;;;;;;1.00;1.00;;;;;16.90;100.00;100437.88;4868061;29;45478;-83
2022/10/16 00:46:19;;;;;;;;;2.00;2.00;;;;;16.95;100.00;100426.16;4855823;29;46604;-84
2022/10/16 00:49:08;;;;;;;;;1.00;1.00;;;;;16.91;100.00;100435.19;4856092;29;44723;-84
2022/10/16 00:51:39;;;;;;;;;1.00;1.00;;;;;16.98;100.00;100441.34;4872289;29;45470;-84
2022/10/16 00:54:10;;;;;;;;;1.00;1.00;;;;;16.99;100.00;100433.25;4872606;29;45431;-84
2022/10/16 00:56:36;;;;;;;;;0.25;0.25;;;;;16.96;100.00;100454.78;4838069;29;47201;-83
2022/10/16 00:59:06;;;;;;;;;0.00;0.00;;;;;16.96;100.00;100448.53;4839025;29;45319;-84
2022/10/16 01:01:32;;;;;;;;;0.75;0.75;;;;;16.95;100.00;100455.72;4854714;29;45170;-83
2022/10/16 01:03:57;;;;;;;;;1.50;1.25;;;;;16.98;100.00;100458.31;4838314;29;45407;-83
2022/10/16 01:10:03;;;;;;;;;1.50;1.00;;;;;17.13;100.00;100467.94;4854914;29;45343;-84
2022/10/16 01:12:40;;;;;;;;;0.75;0.75;;;;;17.15;100.00;100457.19;4838036;29;45262;-84
2022/10/16 01:15:18;;;;;;;;;1.75;1.00;;;;;17.17;100.00;100461.59;4838856;29;45645;-84
2022/10/16 01:18:04;;;;;;;;;0.00;0.00;;;;;17.17;100.00;100479.53;4855974;28;46320;-84
2022/10/16 01:20:40;;;;;;;;;1.00;1.00;;;;;17.14;100.00;100474.19;4839653;29;44791;-84
2022/10/16 01:23:27;;;;;;;;;0.00;0.00;;;;;17.17;100.00;100475.03;4838899;29;44756;-84
2022/10/16 01:26:23;;;;;;;;;3.00;1.00;;;;;17.20;100.00;100457.97;4856828;28;45693;-84
2022/10/16 01:28:58;;;;;;;;;1.00;1.00;;;;;17.15;100.00;100449.13;4839125;29;47750;-84
2022/10/16 01:31:29;;;;;;;;;1.00;1.00;;;;;17.19;100.00;100467.84;4855794;29;45351;-84
2022/10/16 01:34:13;;;;;;;;;0.00;0.00;;;;;17.22;100.00;100464.19;4839288;29;45407;-84
2022/10/16 01:36:45;;;;;;;;;0.00;0.00;;;;;17.25;100.00;100465.94;4856157;29;45402;-84
2022/10/16 01:39:12;;;;;;;;;2.00;1.00;;;;;17.25;100.00;100466.84;4841496;29;46863;-84
2022/10/16 01:41:45;;;;;;;;;1.00;1.00;;;;;17.21;100.00;100459.75;4843164;29;45313;-84
2022/10/16 01:44:18;;;;;;;;;0.25;0.25;;;;;17.18;100.00;100465.16;4859919;29;45530;-84
2022/10/16 01:46:48;;;;;;;;;1.00;1.00;;;;;17.13;100.00;100457.19;4860261;28;45500;-84
2022/10/16 01:49:14;;;;;;;;;0.25;0.25;;;;;17.13;100.00;100472.44;4842766;29;48379;-84
2022/10/16 01:52:32;;;;;;;;;1.00;1.00;;;;;17.09;100.00;100459.97;4859282;28;45447;-84
2022/10/16 01:55:00;;;;;;;;;1.00;1.00;;;;;17.07;100.00;100467.19;4841914;29;45380;-84
2022/10/16 01:57:29;;;;;;;;;0.00;0.00;;;;;17.06;100.00;100460.00;4841995;29;45541;-83
2022/10/16 02:00:01;;;;;;;;;0.50;0.00;;;;;17.08;100.00;100463.56;4858880;29;45444;-84
2022/10/16 02:02:30;;;;;;;;;0.00;0.00;;;;;17.06;100.00;100468.06;4858463;29;45470;-84
2022/10/16 02:05:06;;;;;;;;;1.50;1.50;;;;;17.07;100.00;100468.06;4841701;29;44830;-84
2022/10/16 02:07:31;;;;;;;;;3.00;2.25;;;;;17.06;100.00;100468.94;4857911;29;44750;-84
2022/10/16 02:09:57;;;;;;;;;0.75;0.75;;;;;17.06;100.00;100476.13;4840480;29;47240;-84
2022/10/16 02:12:29;;;;;;;;;0.75;0.75;;;;;17.04;100.00;100477.97;4857739;28;45381;-84
2022/10/16 02:14:57;;;;;;;;;1.25;1.00;;;;;17.02;100.00;100483.34;4858120;28;44859;-84
2022/10/16 02:17:29;;;;;;;;;1.00;1.00;;;;;16.97;100.00;100483.44;4841989;29;44945;-84
2022/10/16 02:19:57;;;;;;;;;1.00;1.00;;;;;16.95;100.00;100479.00;4841587;29;46765;-84
2022/10/16 02:22:27;;;;;;;;;1.00;1.00;;;;;16.99;100.00;100492.34;4838905;29;45329;-83
2022/10/16 02:25:02;;;;;;;;;0.00;0.00;;;;;17.00;100.00;100493.25;4839464;29;45426;-84
2022/10/16 02:27:49;;;;;;;;;0.75;0.75;;;;;16.99;100.00;100481.63;4838595;29;45561;-84
2022/10/16 02:30:36;;;;;;;;;0.75;0.75;;;;;16.99;100.00;100481.63;4856373;29;46166;-84
2022/10/16 02:33:06;;;;;;;;;0.00;0.00;;;;;17.00;100.00;100475.31;4841225;29;45395;-84
2022/10/16 02:35:33;;;;;;;;;0.50;0.50;;;;;16.99;100.00;100476.25;4857377;29;45467;-84
2022/10/16 02:38:00;;;;;;;;;1.00;1.00;;;;;17.00;100.00;100478.00;4858354;29;45536;-84
2022/10/16 02:40:27;;;;;;;;;1.00;1.00;;;;;17.00;100.00;100488.75;4864896;29;45380;-84
2022/10/16 02:42:54;;;;;;;;;1.00;1.00;;;;;16.90;100.00;100470.13;4873537;29;45339;-84
2022/10/16 02:45:21;;;;;;;;;0.50;0.50;;;;;16.91;100.00;100478.16;4858789;29;45388;-84
2022/10/16 02:47:47;;;;;;;;;1.50;1.50;;;;;16.90;100.00;100481.75;4861627;29;45340;-84
2022/10/16 02:50:12;;;;;;;;;2.00;0.75;;;;;17.02;100.00;100495.91;4872775;29;45551;-83
2022/10/16 02:52:38;;;;;;;;;1.00;0.00;;;;;17.06;100.00;100503.00;4873222;29;45415;-83
2022/10/16 02:55:04;;;;;;;;;1.25;1.25;;;;;17.08;100.00;100501.19;4857046;29;45440;-84
2022/10/16 02:57:29;;;;;;;;;2.00;1.00;;;;;17.06;100.00;100501.19;4857100;29;45540;-84
2022/10/16 02:59:55;;;;;;;;;1.75;1.00;;;;;17.07;100.00;100505.66;4873362;29;46025;-84
2022/10/16 03:02:20;;;;;;;;;0.00;0.00;;;;;17.07;100.00;100504.78;4856401;29;45843;-83
2022/10/16 03:04:46;;;;;;;;;0.25;0.25;;;;;17.06;100.00;100498.50;4855574;29;45391;-84
2022/10/16 03:07:11;;;;;;;;;1.00;1.00;;;;;17.09;100.00;100508.34;4856336;29;45547;-84
2022/10/16 03:09:36;;;;;;;;;0.25;0.25;;;;;17.08;100.00;100501.19;4872486;29;47248;-84
2022/10/16 03:12:02;;;;;;;;;0.50;0.50;;;;;17.08;100.00;100493.13;4872828;29;45339;-84
2022/10/16 03:14:27;;;;;;;;;2.50;2.50;;;;;17.07;100.00;100496.72;4867170;29;45408;-84
2022/10/16 03:16:53;;;;;;;;;0.50;0.50;;;;;17.05;100.00;100502.13;4856992;29;44947;-84
2022/10/16 03:19:20;;;;;;;;;0.00;0.00;;;;;16.97;100.00;100478.06;4872626;29;46924;-83
2022/10/16 03:21:46;;;;;;;;;0.00;0.00;;;;;16.97;100.00;100496.88;4866101;29;45575;-83
2022/10/16 03:24:11;;;;;;;;;1.00;1.00;;;;;16.95;100.00;100490.63;4855018;29;45370;-83
2022/10/16 03:26:37;;;;;;;;;1.00;1.00;;;;;16.96;100.00;100492.38;4871938;29;45443;-84
2022/10/16 03:29:03;;;;;;;;;1.00;1.00;;;;;16.96;100.00;100487.03;4871592;29;46430;-83
2022/10/16 03:31:29;;;;;;;;;0.00;0.00;;;;;16.91;100.00;100459.38;4870785;29;45881;-83
2022/10/16 03:33:55;;;;;;;;;0.00;0.00;;;;;16.92;100.00;100487.97;4868925;29;45494;-83
2022/10/16 03:36:20;;;;;;;;;1.00;1.00;;;;;16.86;100.00;100490.75;4871743;29;45408;-83
2022/10/16 03:38:46;;;;;;;;;0.00;0.00;;;;;16.87;100.00;100491.69;4871683;29;45476;-84
2022/10/16 03:41:11;;;;;;;;;0.25;0.25;;;;;16.84;100.00;100484.53;4872478;29;45284;-83
2022/10/16 03:43:36;;;;;;;;;0.75;0.00;;;;;16.86;100.00;100489.88;4866121;29;45359;-83
2022/10/16 03:46:03;;;;;;;;;0.25;0.25;;;;;16.90;100.00;100519.34;4870827;29;45511;-82
2022/10/16 03:48:29;;;;;;;;;1.00;1.00;;;;;16.94;100.00;100506.78;4855103;29;47952;-83
2022/10/16 03:50:54;;;;;;;;;0.00;0.00;;;;;16.91;100.00;100491.59;4854904;28;45464;-84
2022/10/16 03:53:20;;;;;;;;;1.00;1.00;;;;;16.86;100.00;100503.31;4855575;29;45316;-83
2022/10/16 03:55:45;;;;;;;;;0.00;0.00;;;;;16.86;100.00;100508.69;4872337;29;45578;-83
2022/10/16 04:01:33;;;;;;;;;1.00;1.00;;;;;16.85;100.00;100505.13;4871474;29;45471;-83
2022/10/16 04:03:58;;;;;;;;;1.50;1.50;;;;;16.83;100.00;100501.56;4855615;29;45285;-83
2022/10/16 04:06:23;;;;;;;;;1.25;1.25;;;;;16.81;100.00;100498.03;4856450;29;45673;-84
2022/10/16 04:08:49;;;;;;;;;0.75;0.75;;;;;16.86;100.00;100509.56;4855562;29;46726;-83
2022/10/16 04:11:16;;;;;;;;;0.00;0.00;;;;;16.89;100.00;100517.59;4871474;29;45371;-83
2022/10/16 04:13:41;;;;;;;;;0.00;0.00;;;;;16.91;100.00;100515.78;4870783;29;45474;-84
2022/10/16 04:16:07;;;;;;;;;2.00;1.00;;;;;16.92;100.00;100519.34;4854344;29;45672;-82
2022/10/16 04:18:32;;;;;;;;;0.50;0.50;;;;;16.93;100.00;100513.06;4872179;29;45346;-83
2022/10/16 04:21:03;;;;;;;;;0.00;0.00;;;;;16.91;100.00;100515.78;4854545;29;45465;-84
2022/10/16 04:23:29;;;;;;;;;1.00;1.00;;;;;16.89;100.00;100503.28;4871118;29;45348;-83
2022/10/16 04:25:55;;;;;;;;;1.00;1.00;;;;;16.98;100.00;100521.94;4860955;29;45368;-83
2022/10/16 04:28:20;;;;;;;;;1.00;1.00;;;;;17.02;100.00;100522.78;4854190;29;46969;-83
2022/10/16 04:30:52;;;;;;;;;0.00;0.00;;;;;17.03;100.00;100530.81;4869401;29;45842;-83
2022/10/16 04:33:18;;;;;;;;;0.50;0.50;;;;;17.06;100.00;100548.69;4857232;29;45446;-82
2022/10/16 04:35:43;;;;;;;;;0.00;0.00;;;;;17.10;100.00;100548.59;4858263;29;45324;-82
2022/10/16 04:38:10;;;;;;;;;2.25;1.00;;;;;17.06;100.00;100540.63;4874688;29;45455;-83
2022/10/16 04:40:36;;;;;;;;;0.00;0.00;;;;;17.06;100.00;100548.69;4875138;29;45521;-83
2022/10/16 04:43:03;;;;;;;;;0.00;0.00;;;;;17.07;100.00;100553.16;4858383;29;45521;-83
2022/10/16 04:45:28;;;;;;;;;0.00;0.00;;;;;17.05;100.00;100560.31;4858383;29;44843;-83
2022/10/16 04:47:57;;;;;;;;;0.50;0.50;;;;;17.01;100.00;100556.81;4858544;28;47153;-83
2022/10/16 04:50:22;;;;;;;;;0.00;0.00;;;;;17.02;100.00;100565.75;4857489;29;45443;-83
2022/10/16 04:52:48;;;;;;;;;0.00;0.00;;;;;16.98;100.00;100575.66;4874311;29;45346;-83
2022/10/16 04:55:14;;;;;;;;;0.00;0.00;;;;;16.96;100.00;100562.25;4854902;29;45276;-82
2022/10/16 04:57:40;;;;;;;;;0.75;0.75;;;;;17.02;100.00;100561.25;4858813;28;47302;-82
2022/10/16 05:00:06;;;;;;;;;0.50;0.50;;;;;16.90;100.00;100539.97;4873808;28;45584;-82
2022/10/16 05:02:31;;;;;;;;;0.75;0.75;;;;;17.09;100.00;100567.47;4874340;29;45433;-84
2022/10/16 05:04:57;;;;;;;;;0.00;0.00;;;;;17.05;100.00;100566.59;4858321;29;45420;-83
2022/10/16 05:07:22;;;;;;;;;0.50;0.50;;;;;17.07;100.00;100563.91;4856926;29;45441;-84
2022/10/16 05:10:31;;;;;;;;;0.00;0.00;;;;;17.09;100.00;100581.78;4873649;29;45488;-84
2022/10/16 05:12:57;;;;;;;;;0.00;0.00;;;;;17.02;100.00;100572.00;4872638;29;45444;-83
2022/10/16 05:15:24;;;;;;;;;0.75;0.75;;;;;16.98;100.00;100573.84;4870347;29;45414;-83
2022/10/16 05:17:55;;;;;;;;;0.00;0.00;;;;;16.97;100.00;100593.59;4873350;29;46222;-83
2022/10/16 05:20:21;;;;;;;;;0.00;0.00;;;;;16.85;100.00;100591.06;4856533;29;45407;-83
2022/10/16 05:22:47;;;;;;;;;1.25;0.00;;;;;16.92;100.00;100600.81;4858803;29;45890;-83
2022/10/16 05:25:12;;;;;;;;;1.00;1.00;;;;;16.93;100.00;100599.91;4874058;29;45469;-84
2022/10/16 05:27:38;;;;;;;;;0.50;0.50;;;;;16.90;100.00;100599.94;4870971;29;46621;-83
2022/10/16 05:30:04;;;;;;;;;0.00;0.00;;;;;16.92;100.00;100602.63;4874629;29;45781;-83
2022/10/16 05:32:29;;;;;;;;;1.50;0.00;;;;;16.82;100.00;100590.22;4875299;29;45482;-83
2022/10/16 05:34:54;;;;;;;;;0.00;0.00;;;;;16.86;100.00;100600.00;4859478;29;45568;-82
2022/10/16 05:37:20;;;;;;;;;0.00;0.00;;;;;16.84;100.00;100596.47;4876322;29;45346;-83
2022/10/16 05:39:45;;;;;;;;;0.00;0.00;;;;;16.84;100.00;100594.66;4864078;29;45881;-84
2022/10/16 05:42:11;;;;;;;;;1.00;0.50;;;;;16.80;100.00;100593.81;4857594;29;45339;-82
2022/10/16 05:44:36;;;;;;;;;0.00;0.00;;;;;16.77;100.00;100585.78;4858241;29;45364;-82
2022/10/16 05:47:02;;;;;;;;;0.00;0.00;;;;;16.79;100.00;100596.50;4875654;29;45670;-84
2022/10/16 05:49:27;;;;;;;;;0.00;0.00;;;;;16.76;100.00;100601.91;4857745;29;45452;-82
2022/10/16 05:51:53;;;;;;;;;0.00;0.00;;;;;16.74;100.00;100599.25;4857193;29;45988;-83
2022/10/16 05:54:18;;;;;;;;;0.00;0.00;;;;;16.74;100.00;100598.34;4857659;29;45332;-83
2022/10/16 05:56:44;;;;;;;;;1.00;1.00;;;;;16.74;100.00;100598.34;4857718;29;47144;-82
2022/10/16 05:59:09;;;;;;;;;0.00;0.00;;;;;16.67;100.00;100599.34;4872429;29;44846;-83
2022/10/16 06:01:35;;;;;;;;;0.25;0.25;;;;;16.67;100.00;100600.22;4873017;29;45786;-83
2022/10/16 06:04:01;;;;;;;;;0.25;0.00;;;;;16.70;100.00;100607.34;4874048;29;45398;-83
2022/10/16 06:06:27;;;;;;;;;0.00;0.00;;;;;16.67;100.00;100602.03;4857015;29;46867;-83
2022/10/16 06:08:55;;;;;;;;;1.25;1.00;;;;;16.67;100.00;100602.03;4856405;29;45320;-83
2022/10/16 06:11:24;;;;;;;;;0.50;0.50;;;;;16.58;100.00;100593.19;4862588;29;44924;-83
2022/10/16 06:13:56;;;;;;;;;1.50;1.50;;;;;16.60;100.00;100606.59;4856748;29;45694;-83
2022/10/16 06:16:22;;;;;;;;;1.00;1.00;;;;;16.62;100.00;100607.44;4874522;29;45720;-83
2022/10/16 06:18:48;;;;;;;;;2.00;0.00;;;;;16.62;100.00;100609.25;4874453;29;44852;-83
2022/10/16 06:21:20;;;;;;;;;1.75;1.75;;;;;16.62;100.00;100606.56;4874031;29;45351;-82
2022/10/16 06:23:46;;;;;;;;;1.00;1.00;;;;;16.66;100.00;100616.38;4857645;29;45111;-82
2022/10/16 06:26:14;;;;;;;;;1.00;1.00;;;;;16.58;100.00;100598.56;4867970;29;48439;-83
2022/10/16 06:28:40;;;;;;;;;1.25;1.25;;;;;16.61;100.00;100608.38;4870052;29;45498;-82
2022/10/16 06:31:08;;;;;;;;;4.00;4.00;;;;;16.53;100.00;100616.53;4857792;29;44770;-83
2022/10/16 06:33:35;;;;;;;;;0.50;0.50;;;;;16.47;100.00;100621.97;4874496;29;45375;-83
2022/10/16 06:36:07;;;;;;;;;0.00;0.00;;;;;16.42;100.00;100625.59;4875140;29;45429;-84
2022/10/16 06:38:33;;;;;;;;;0.50;0.00;;;;;16.39;100.00;100640.84;4858071;29;44776;-83
2022/10/16 06:40:59;;;;;;;;;1.25;1.25;;;;;16.37;100.00;100639.09;4858337;29;45507;-82
2022/10/16 06:43:24;;;;;;;;;1.25;1.25;;;;;16.34;100.00;100641.78;4857308;29;45345;-83
2022/10/16 06:45:57;;;;;;;;;3.50;2.50;;;;;16.33;100.00;100637.34;4857426;29;46643;-83
2022/10/16 06:48:23;;;;;;;;;1.00;1.00;;;;;16.37;100.00;100631.91;4872952;29;44781;-83
2022/10/16 06:50:57;;;;;;;;;0.75;0.75;;;;;16.36;100.00;100623.88;4857094;29;45349;-82
2022/10/16 06:53:23;;;;;;;;;1.25;1.25;;;;;16.43;100.00;100627.41;4872432;29;45614;-83
2022/10/16 06:55:49;;;;;;;;;0.75;0.75;;;;;16.51;100.00;100636.25;4875551;29;45456;-83
2022/10/16 06:58:14;;;;;;;;;1.75;1.75;;;;;16.53;100.00;100634.44;4850472;29;45410;-83
2022/10/16 07:00:40;;;;;;;;;1.00;1.00;;;;;16.60;100.00;100645.09;4849916;29;44782;-83
2022/10/16 07:03:05;;;;;;;;;1.00;1.00;;;;;16.73;100.00;100647.63;4863134;29;45930;-83
2022/10/16 07:05:31;;;;;;;;;1.00;1.00;;;;;16.84;100.00;100648.38;4853825;29;47164;-83
2022/10/16 07:07:58;;;;;;;;;2.00;0.25;;;;;16.91;100.00;100649.22;4854642;29;44808;-82
2022/10/16 07:10:26;;;;;;;;;1.00;1.00;;;;;16.93;100.00;100648.25;4854222;29;45487;-82
2022/10/16 07:12:51;;;;;;;;;1.00;1.00;;;;;16.96;100.00;100647.31;4856262;29;45330;-83
2022/10/16 07:15:17;;;;;;;;;1.25;1.25;;;;;16.99;100.00;100658.03;4855642;29;45332;-84
2022/10/16 07:17:42;;;;;;;;;1.00;0.00;;;;;17.05;100.00;100675.84;4858269;29;45397;-82
2022/10/16 07:20:08;;;;;;;;;0.75;0.75;;;;;17.04;100.00;100677.66;4856990;29;45308;-83
2022/10/16 07:22:33;;;;;;;;;2.00;2.00;;;;;17.07;100.00;100666.00;4860745;29;44853;-83
2022/10/16 07:24:59;;;;;;;;;1.00;1.00;;;;;17.08;100.00;100662.41;4857293;29;45788;-83
2022/10/16 07:27:24;;;;;;;;;1.00;1.00;;;;;17.15;100.00;100666.78;4855746;29;44769;-83
2022/10/16 07:29:50;;;;;;;;;2.00;2.00;;;;;17.26;100.00;100678.25;4869013;29;45428;-83
2022/10/16 07:32:15;;;;;;;;;1.00;1.00;;;;;17.38;100.00;100686.13;4854853;29;45342;-82
2022/10/16 07:34:41;;;;;;;;;2.00;2.00;;;;;17.47;100.00;100684.22;4854314;29;46566;-83
2022/10/16 07:37:07;;;;;;;;;2.00;2.00;;;;;17.56;100.00;100682.28;4856796;29;45456;-82
2022/10/16 07:39:32;;;;;;;;;1.00;1.00;;;;;17.55;100.00;100679.59;4870647;29;45486;-82
2022/10/16 07:41:58;;;;;;;;;1.00;1.00;;;;;17.65;100.00;100697.38;4855602;28;45432;-83
2022/10/16 07:44:24;;;;;;;;;0.00;0.00;;;;;17.67;100.00;100684.78;4856853;29;45374;-83
2022/10/16 07:46:49;;;;;;;;;1.00;1.00;;;;;17.78;100.00;100703.47;4855649;29;45442;-83
2022/10/16 07:49:15;;;;;;;;;1.00;1.00;;;;;17.76;100.00;100678.38;4872873;29;45401;-83
2022/10/16 07:51:41;;;;;;;;;1.00;1.00;;;;;17.87;100.00;100692.56;4856817;29;45510;-83
2022/10/16 07:54:09;;;;;;;;;0.00;0.00;;;;;17.88;100.00;100709.63;4855126;29;45414;-83
2022/10/16 07:56:34;;;;;;;;;1.00;1.00;;;;;17.78;100.00;100701.66;4838661;29;44776;-83
2022/10/16 07:59:03;;;;;;;;;0.25;0.25;;;;;17.88;100.00;100715.88;4855768;29;45435;-82
2022/10/16 08:01:28;;;;;;;;;1.00;1.00;;;;;17.94;100.00;100710.41;4854963;29;45498;-82
2022/10/16 08:03:54;;;;;;;;;2.50;0.75;;;;;18.01;100.00;100712.97;4854051;29;46881;-83
2022/10/16 08:06:21;;;;;;;;;0.00;0.00;;;;;18.06;100.00;100713.81;4855768;29;45459;-83
2022/10/16 08:08:47;;;;;;;;;1.75;1.75;;;;;18.08;100.00;100723.63;4853861;29;45484;-83
2022/10/16 08:11:14;;;;;;;;;3.00;2.00;;;;;18.01;100.00;100732.69;4852302;29;45443;-83
2022/10/16 08:13:41;;;;;;;;;1.25;1.25;;;;;17.90;100.00;100729.31;4873190;28;47270;-83
2022/10/16 08:16:07;;;;;;;;;2.00;1.00;;;;;17.89;100.00;100746.34;4859482;28;45370;-83
2022/10/16 08:18:40;;;;;;;;;1.00;1.00;;;;;17.87;100.00;100734.72;4872364;28;45363;-83
2022/10/16 08:21:07;;;;;;;;;1.00;1.00;;;;;17.85;100.00;100723.09;4860418;28;45128;-83
2022/10/16 08:23:34;;;;;;;;;1.00;1.00;;;;;17.87;100.00;100713.22;4872990;28;47123;-83
2022/10/16 08:26:06;;;;;;;;;1.00;1.00;;;;;17.78;100.00;100714.22;4858263;29;45467;-84
2022/10/16 08:28:31;;;;;;;;;0.00;0.00;;;;;17.80;100.00;100712.41;4853597;29;45447;-83
2022/10/16 08:31:07;;;;;;;;;1.00;1.00;;;;;17.82;100.00;100728.53;4870889;29;44894;-83
2022/10/16 08:33:34;;;;;;;;;0.00;0.00;;;;;17.83;100.00;100733.88;4855787;29;45660;-83
2022/10/16 08:36:00;;;;;;;;;0.50;0.50;;;;;17.85;100.00;100741.94;4855765;29;45557;-83
2022/10/16 08:38:26;;;;;;;;;1.00;1.00;;;;;17.86;100.00;100746.44;4873486;29;45955;-83
2022/10/16 08:41:13;;;;;;;;;1.00;1.00;;;;;17.83;100.00;100741.97;4852743;29;45613;-83
2022/10/16 08:44:08;;;;;;;;;2.00;2.00;;;;;17.80;100.00;100740.19;4852962;29;45449;-83
2022/10/16 08:46:52;;;;;;;;;2.50;2.00;;;;;17.80;100.00;100733.91;4836451;29;45382;-83
2022/10/16 08:52:43;;;;;;;;;1.00;1.00;;;;;17.86;100.00;100743.72;4860912;29;45433;-82
2022/10/16 08:55:27;;;;;;;;;1.00;1.00;;;;;17.86;100.00;100749.13;4853764;29;47846;-83
2022/10/16 08:57:53;;;;;;;;;1.00;1.00;;;;;17.86;100.00;100754.50;4869803;29;45334;-83
2022/10/16 09:00:19;;;;;;;;;1.00;1.00;;;;;17.89;100.00;100754.44;4870870;29;45276;-82
2022/10/16 09:03:14;;;;;;;;;2.50;1.00;;;;;17.96;100.00;100751.63;4853635;29;45436;-83
2022/10/16 09:06:07;;;;;;;;;1.00;1.00;;;;;18.14;100.00;100765.69;4870968;29;45407;-82
2022/10/16 09:08:33;;;;;;;;;1.00;1.00;;;;;18.36;100.00;100759.03;4867937;29;44858;-83
2022/10/16 09:11:21;;;;;;;;;2.00;2.00;;;;;18.63;100.00;100754.03;4854832;29;45364;-84
2022/10/16 09:14:06;;;;;;;;;1.50;1.25;;;;;18.87;100.00;100747.31;4873842;29;45488;-83
2022/10/16 09:16:40;;;;;;;;;1.50;1.25;;;;;19.02;100.00;100745.22;4871828;29;48015;-83
2022/10/16 09:19:28;;;;;;;;;1.00;1.00;;;;;18.97;100.00;100730.03;4857182;29;44779;-83
2022/10/16 09:21:55;;;;;;;;;1.50;1.50;;;;;19.03;100.00;100730.81;4874131;29;44831;-83
2022/10/16 09:24:24;;;;;;;;;1.75;1.75;;;;;19.08;100.00;100745.09;4869799;29;45578;-83
2022/10/16 09:26:50;;;;;;;;;1.00;1.00;;;;;19.07;100.00;100737.94;4855037;29;47028;-83
2022/10/16 09:29:21;;;;;;;;;1.00;1.00;;;;;19.20;100.00;100750.22;4871612;29;45899;-83
2022/10/16 09:31:47;;;;;;;;;1.50;1.50;;;;;19.34;100.00;100761.59;4871738;29;45668;-83
2022/10/16 09:34:34;;;;;;;;;3.25;2.25;;;;;19.51;100.00;100757.63;4855258;29;45457;-83
2022/10/16 09:37:03;;;;;;;;;1.50;1.50;;;;;19.48;100.00;100744.25;4854558;29;48027;-84
2022/10/16 09:39:28;;;;;;;;;2.25;2.00;;;;;19.49;100.00;100751.38;4854829;29;45500;-84
2022/10/16 09:41:56;;;;;;;;;2.00;2.00;;;;;19.46;100.00;100749.66;4854020;29;45557;-84
2022/10/16 09:44:30;;;;;;;;;1.75;1.00;;;;;19.44;100.00;100747.94;4841236;29;45427;-84
2022/10/16 09:47:28;;;;;;;;;4.25;2.75;;;;;19.46;100.00;100767.66;4865281;29;48019;-83
2022/10/16 09:50:05;;;;;;;;;1.50;1.50;;;;;19.43;100.00;100756.94;4864961;29;45472;-82
2022/10/16 09:52:32;;;;;;;;;1.75;1.75;;;;;19.46;100.00;100746.97;4872641;29;45454;-83
2022/10/16 09:55:34;;;;;;;;;1.00;1.00;;;;;19.51;100.00;100760.34;4870940;29;45438;-83
2022/10/16 09:58:00;;;;;;;;;2.00;2.00;;;;;19.43;100.00;100743.44;4854727;29;47416;-84
2022/10/16 10:00:26;;;;;;;;;3.00;2.75;;;;;19.46;100.00;100752.34;4855841;29;45347;-83
2022/10/16 10:02:54;;;;;;;;;3.00;3.00;;;;;19.50;100.00;100734.31;4875747;29;45468;-83
2022/10/16 10:05:29;;;;;;;;;1.75;1.75;;;;;19.61;100.00;100734.91;4854449;29;45525;-69
2022/10/16 10:11:18;;;;;;;;;6.75;4.50;;;;;19.54;100.00;100723.41;4877253;29;45425;-81
2022/10/16 10:13:44;;;;;;;;;4.75;4.75;;;;;19.54;100.00;100728.78;4877335;29;45358;-82
2022/10/16 10:16:10;;;;;;;;;3.00;3.00;;;;;19.42;100.00;100715.59;4874445;29;44901;-83
2022/10/16 10:18:35;;;;;;;;;6.25;6.25;;;;;19.44;100.00;100721.84;4858644;29;46645;-82
2022/10/16 10:21:02;;;;;;;;;3.00;3.00;;;;;19.52;100.00;100719.84;4874352;29;45438;-81
2022/10/16 10:27:15;;;;;;;;;4.75;4.00;;;;;19.87;100.00;100733.44;4874915;29;45604;-81
2022/10/16 10:30:01;;;;;;;;;3.25;3.25;;;;;19.97;100.00;100726.91;4874071;29;45449;-81
2022/10/16 10:33:17;;;;;;;;;3.50;3.00;;;;;20.06;100.00;100723.97;4874549;29;45362;-81
2022/10/16 10:36:08;;;;;;;;;3.50;3.00;;;;;20.09;100.00;100721.19;4837735;29;44861;-81
2022/10/16 10:38:39;;;;;;;;;4.25;4.25;;;;;20.13;100.00;100716.59;4839827;29;45474;-81
2022/10/16 10:41:29;;;;;;;;;2.00;1.50;;;;;20.19;100.00;100716.44;4840106;29;48347;-82
2022/10/16 10:44:22;;;;;;;;;3.00;3.00;;;;;20.18;100.00;100731.75;4856342;29;45426;-82
2022/10/16 10:46:56;;;;;;;;;2.00;2.00;;;;;20.18;100.00;100720.97;4840297;29;45584;-81
2022/10/16 10:49:53;;;;;;;;;2.00;2.00;;;;;20.27;100.00;100716.25;4855381;29;46022;-82
2022/10/16 10:52:53;;;;;;;;;2.00;2.00;;;;;20.27;100.00;100713.53;4852118;29;45009;-82
2022/10/16 10:55:38;;;;;;;;;3.00;3.00;;;;;20.28;100.00;100707.19;4853844;29;45800;-82
2022/10/16 10:58:27;;;;;;;;;1.75;1.75;;;;;20.41;100.00;100705.06;4829676;29;45395;-82
2022/10/16 11:01:09;;;;;;;;;4.00;2.75;;;;;20.45;100.00;100696.84;4819331;29;45552;-82
2022/10/16 11:04:14;;;;;;;;;2.00;2.00;;;;;20.58;100.00;100692.91;4835700;29;46464;-81
2022/10/16 11:06:46;;;;;;;;;2.00;2.00;;;;;20.57;100.00;100691.09;4831272;29;45639;-79
2022/10/16 11:09:17;;;;;;;;;3.75;3.75;;;;;20.56;100.00;100697.44;4819965;29;45497;-80
2022/10/16 11:11:58;;;;;;;;;3.00;3.00;;;;;20.64;100.00;100696.34;4840233;29;45370;-82
2022/10/16 11:14:31;;;;;;;;;0.00;0.00;;;;;20.67;100.00;100677.38;4843554;29;47168;-82
2022/10/16 11:17:12;;;;;;;;;2.25;2.25;;;;;20.76;100.00;100690.59;4855680;29;45435;-82
2022/10/16 11:19:46;;;;;;;;;1.00;1.00;;;;;20.83;100.00;100685.91;4839936;29;45668;-82
2022/10/16 11:22:22;;;;;;;;;2.00;2.00;;;;;20.75;100.00;100695.13;4840699;29;44854;-81
2022/10/16 11:25:27;;;;;;;;;1.00;1.00;;;;;20.75;100.00;100699.66;4856362;29;46347;-82
2022/10/16 11:27:58;;;;;;;;;1.00;1.00;;;;;20.85;100.00;100700.28;4803576;29;45423;-82
2022/10/16 11:30:26;;;;;;;;;0.75;0.75;;;;;20.90;100.00;100699.19;4817879;29;45405;-82
2022/10/16 11:33:22;;;;;;;;;2.75;2.75;;;;;20.80;100.00;100689.56;4818992;29;46025;-81
2022/10/16 11:36:06;;;;;;;;;1.00;1.00;;;;;20.80;100.00;100692.28;4832533;29;45723;-81
2022/10/16 11:38:43;;;;;;;;;1.25;1.25;;;;;20.78;100.00;100691.44;4819715;29;45598;-81
2022/10/16 11:41:40;;;;;;;;;0.75;0.75;;;;;20.82;100.00;100684.13;4836708;29;45887;-81
2022/10/16 11:44:33;;;;;;;;;1.25;1.25;;;;;20.70;100.00;100683.56;4809027;29;45480;-81
2022/10/16 11:47:26;;;;;;;;;1.00;1.00;;;;;20.62;100.00;100684.69;4820155;29;47166;-82
2022/10/16 11:50:14;;;;;;;;;2.25;2.00;;;;;20.50;100.00;100667.91;4820409;29;46027;-82
2022/10/16 11:52:51;;;;;;;;;1.50;1.50;;;;;20.44;100.00;100662.66;4834995;29;44742;-81